Data for 06/13/2005

Time Sea-Level Adjusted Pressure Absolute Pressure Temperature Relative Humidity Dew Point   
(mb) (inHg) (mb) (inHg) (C) (F) (%) (C) (F)
00:05 1018 30.06 847 25.01 5.4 41.8 89 3.7 38.7
00:10 1018 30.06 847 25.01 5.4 41.7 86 3.3 38
00:15 1018 30.06 847 25.01 5.4 41.7 86 3.2 37.7
00:20 1018 30.06 847 25.01 5.2 41.4 86 3.1 37.5
00:25 1018 30.06 847 25.01 5.5 41.8 84 3 37.4
00:30 1018 30.06 847 25.01 5.8 42.4 81 2.9 37.1
00:35 1018 30.06 847 25.01 5.8 42.5 85 3.4 38.2
00:40 1018 30.06 847 25.01 5.6 42.1 84 3 37.5
00:45 1018 30.06 847 25.01 5.7 42.3 83 3.1 37.5
00:50 1018 30.06 847 25.01 5.7 42.2 83 3 37.4
00:55 1018 30.06 847 25.01 5.6 42.1 83 2.9 37.3
01:00 1018 30.06 847 25.01 5.7 42.3 80 2.6 36.7
01:05 1018 30.06 847 25.01 5.9 42.6 81 2.8 37.1
01:10 1018 30.06 847 25.01 5.7 42.3 80 2.6 36.6
01:15 1018 30.06 847 25.01 5.7 42.3 80 2.6 36.6
01:20 1018 30.06 847 25.01 5.8 42.4 80 2.7 36.8
01:25 1018 30.06 847 25.01 5.8 42.5 80 2.6 36.6
01:30 1018 30.06 848 25.04 6 42.7 79 2.6 36.7
01:35 1018 30.06 848 25.04 6.1 42.9 79 2.7 36.9
01:40 1018 30.06 848 25.04 6 42.9 80 2.9 37.2
01:45 1018 30.06 848 25.04 6.1 42.9 80 2.9 37.2
01:50 1018 30.06 848 25.04 6.1 42.9 80 2.9 37.2
01:55 1018 30.06 848 25.04 5.9 42.7 81 2.9 37.3
02:00 1018 30.06 848 25.04 5.8 42.5 82 3.1 37.5
02:05 1018 30.06 848 25.04 5.7 42.3 83 3 37.4
02:10 1018 30.06 848 25.04 5.6 42.1 83 3 37.4
02:15 1018 30.06 848 25.04 5.5 42 83 2.9 37.2
02:20 1019 30.09 848 25.04 5.5 42 83 2.9 37.3
02:25 1019 30.09 848 25.04 5.6 42.1 83 3 37.4
02:30 1019 30.09 848 25.04 5.7 42.3 82 3 37.4
02:35 1019 30.09 848 25.04 5.8 42.4 83 3.1 37.5
02:40 1019 30.09 848 25.04 5.8 42.4 82 3 37.5
02:45 1019 30.09 848 25.04 5.8 42.5 82 3 37.4
02:50 1019 30.09 848 25.04 5.9 42.5 82 2.9 37.3
02:55 1019 30.09 848 25.04 5.9 42.6 81 2.9 37.2
03:00 1019 30.09 848 25.04 5.9 42.6 81 2.9 37.2
03:05 1019 30.09 848 25.04 5.9 42.7 80 2.8 37
03:10 1019 30.09 848 25.04 6.1 43 80 2.8 37.1
03:15 1019 30.09 848 25.04 6.2 43.2 77 2.5 36.6
03:20 1019 30.09 848 25.04 6.3 43.3 77 2.6 36.7
03:25 1019 30.09 848 25.04 6.2 43.2 79 2.8 37
03:30 1019 30.09 848 25.04 6 42.9 79 2.7 36.9
03:35 1019 30.09 848 25.04 6 42.7 79 2.6 36.6
03:40 1019 30.09 848 25.04 6 42.8 78 2.5 36.5
03:45 1019 30.09 848 25.04 6.1 42.9 77 2.4 36.4
03:50 1019 30.09 848 25.04 6 42.9 78 2.5 36.5
03:55 1019 30.09 848 25.04 6 42.7 78 2.5 36.5
04:00 1019 30.09 848 25.04 5.9 42.7 78 2.5 36.4
04:05 1019 30.09 848 25.04 5.9 42.5 79 2.5 36.5
04:10 1019 30.09 848 25.04 5.8 42.4 79 2.4 36.4
04:15 1019 30.09 848 25.04 5.7 42.3 80 2.5 36.5
04:20 1019 30.09 848 25.04 5.6 42.2 79 2.2 36
04:25 1019 30.09 848 25.04 5.7 42.3 78 2.2 35.9
04:30 1019 30.09 849 25.07 5.7 42.3 79 2.3 36.2
04:35 1019 30.09 849 25.07 5.6 42.2 79 2.3 36.1
04:40 1019 30.09 849 25.07 5.5 41.9 82 2.8 37
04:45 1019 30.09 849 25.07 4.9 40.9 86 2.8 37.1
04:50 1019 30.09 849 25.07 4.8 40.6 84 2.3 36.1
04:55 1019 30.09 849 25.07 5 40.9 85 2.6 36.7
05:00 1020 30.12 849 25.07 4.8 40.7 85 2.6 36.6
05:05 1020 30.12 849 25.07 4.8 40.6 85 2.4 36.4
05:10 1020 30.12 849 25.07 4.8 40.6 86 2.7 36.8
05:15 1020 30.12 849 25.07 4.4 39.9 88 2.7 36.8
05:20 1020 30.12 849 25.07 4.4 39.9 86 2.3 36.1
05:25 1020 30.12 849 25.07 4.6 40.3 86 2.4 36.3
05:30 1020 30.12 849 25.07 4.6 40.2 86 2.4 36.3
05:35 1020 30.12 849 25.07 4.6 40.3 86 2.5 36.5
05:40 1020 30.12 849 25.07 4.6 40.3 86 2.5 36.5
05:45 1020 30.12 849 25.07 4.6 40.2 86 2.5 36.4
05:50 1020 30.12 849 25.07 4.5 40 86 2.4 36.3
05:55 1020 30.12 849 25.07 4.6 40.3 85 2.4 36.3
06:00 1020 30.12 849 25.07 4.8 40.6 84 2.4 36.2
06:05 1020 30.12 849 25.07 4.9 40.9 84 2.5 36.4
06:10 1020 30.12 849 25.07 5.2 41.3 82 2.4 36.4
06:15 1020 30.12 849 25.07 5.4 41.8 81 2.5 36.5
06:20 1020 30.12 849 25.07 6.1 42.9 78 2.6 36.6
06:25 1020 30.12 849 25.07 6.6 43.9 77 2.9 37.2
06:30 1020 30.12 849 25.07 6.3 43.3 79 3 37.4
06:35 1020 30.12 849 25.07 6 42.9 80 2.9 37.2
06:40 1020 30.12 849 25.07 6.5 43.7 77 2.8 37
06:45 1020 30.12 850 25.1 7.3 45.1 74 3 37.3
06:50 1020 30.12 850 25.1 7.7 45.9 72 3.1 37.5
06:55 1020 30.12 850 25.1 7.9 46.2 73 3.4 38
07:00 1021 30.15 850 25.1 7.8 46 75 3.6 38.5
07:05 1021 30.15 850 25.1 7.4 45.3 76 3.4 38.2
07:10 1021 30.15 850 25.1 7.2 44.9 77 3.5 38.2
07:15 1021 30.15 850 25.1 7.2 44.9 77 3.4 38.2
07:20 1021 30.15 850 25.1 7.2 44.9 77 3.4 38.2
07:25 1021 30.15 850 25.1 7.2 45 77 3.5 38.3
07:30 1021 30.15 850 25.1 7.4 45.2 77 3.5 38.4
07:35 1021 30.15 850 25.1 7.3 45.1 76 3.3 37.9
07:40 1021 30.15 850 25.1 7.8 46.1 73 3.2 37.8
07:45 1021 30.15 850 25.1 8.5 47.2 71 3.5 38.3
07:50 1021 30.15 850 25.1 8.3 47 71 3.4 38.2
07:55 1021 30.15 850 25.1 7.9 46.2 73 3.3 37.9
08:00 1021 30.15 850 25.1 8.1 46.6 70 2.9 37.2
08:05 1021 30.15 850 25.1 8.5 47.3 67 2.8 37.1
08:10 1021 30.15 850 25.1 8.6 47.6 67 3 37.4
08:15 1021 30.15 850 25.1 9.1 48.3 64 2.7 36.9
08:20 1021 30.15 850 25.1 9.5 49.1 64 3.2 37.7
08:25 1021 30.15 850 25.1 9.6 49.3 61 2.4 36.4
08:30 1021 30.15 850 25.1 9.4 48.9 61 2.4 36.3
08:35 1021 30.15 850 25.1 9.1 48.4 63 2.4 36.4
08:40 1021 30.15 850 25.1 9.7 49.4 60 2.2 36
08:45 1021 30.15 850 25.1 9.8 49.6 57 1.8 35.3
08:50 1021 30.15 850 25.1 9.7 49.5 59 2.1 35.9
08:55 1021 30.15 850 25.1 9.7 49.4 60 2.4 36.3
09:00 1021 30.15 850 25.1 9.7 49.4 57 1.7 35
09:05 1021 30.15 850 25.1 9.5 49.1 58 1.6 34.9
09:10 1021 30.15 850 25.1 9.8 49.6 58 1.9 35.4
09:15 1021 30.15 850 25.1 10.3 50.5 55 1.7 35.1
09:20 1021 30.15 850 25.1 10.2 50.3 54 1.3 34.4
09:25 1021 30.15 850 25.1 9.8 49.6 55 1.2 34.1
09:30 1021 30.15 850 25.1 10.2 50.3 52 0.9 33.5
09:35 1021 30.15 850 25.1 10.4 50.7 53 1.4 34.5
09:40 1021 30.15 850 25.1 10.6 51.1 53 1.4 34.6
09:45 1021 30.15 850 25.1 11 51.8 53 1.9 35.5
09:50 1021 30.15 850 25.1 11.4 52.5 52 1.9 35.5
09:55 1021 30.15 850 25.1 11.5 52.6 50 1.6 34.8
10:00 1021 30.15 850 25.1 11.4 52.6 50 1.5 34.6
10:05 1021 30.15 850 25.1 11.6 52.8 53 2.4 36.4
10:10 1021 30.15 850 25.1 10.8 51.5 55 2.2 36
10:15 1021 30.15 850 25.1 11.3 52.3 54 2.2 36
10:20 1021 30.15 850 25.1 11 51.9 53 2 35.6
10:25 1021 30.15 850 25.1 11.6 52.9 50 1.6 34.9
10:30 1021 30.15 850 25.1 11 51.7 52 1.6 34.9
10:35 1021 30.15 850 25.1 11.5 52.7 53 2.3 36.2
10:40 1021 30.15 850 25.1 12.4 54.3 51 2.5 36.5
10:45 1021 30.15 850 25.1 12.1 53.8 52 2.5 36.6
10:50 1021 30.15 850 25.1 12.3 54.2 51 2.6 36.7
10:55 1021 30.15 850 25.1 13.1 55.5 47 2 35.7
11:00 1021 30.15 850 25.1 13.4 56.2 47 2.5 36.5
11:05 1021 30.15 850 25.1 13.2 55.8 49 2.8 37.1
11:10 1021 30.15 850 25.1 13 55.4 50 2.9 37.2
11:15 1021 30.15 850 25.1 13 55.3 48 2.4 36.3
11:20 1021 30.15 850 25.1 12 53.6 52 2.4 36.3
11:25 1021 30.15 850 25.1 12.3 54.2 51 2.7 36.8
11:30 1021 30.15 850 25.1 12.5 54.4 52 3 37.4
11:35 1021 30.15 850 25.1 13.4 56.1 48 2.6 36.7
11:40 1021 30.15 850 25.1 13.4 56 48 2.6 36.7
11:45 1021 30.15 850 25.1 13.5 56.4 47 2.7 36.8
11:50 1021 30.15 850 25.1 13.9 56.9 46 2.6 36.7
11:55 1020 30.12 850 25.1 14.1 57.4 46 2.8 37
12:00 1020 30.12 850 25.1 14 57.1 48 3.2 37.7
12:05 1021 30.15 850 25.1 13.9 56.9 47 2.7 36.8
12:10 1020 30.12 850 25.1 14.3 57.7 46 2.8 37
12:15 1020 30.12 850 25.1 13.7 56.6 49 3.1 37.7
12:20 1020 30.12 850 25.1 13.8 56.8 47 2.7 36.8
12:25 1020 30.12 850 25.1 14 57.1 48 3.2 37.7
12:30 1020 30.12 849 25.07 13.5 56.4 47 2.4 36.4
12:35 1020 30.12 849 25.07 14.3 57.7 44 2.3 36.2
12:40 1020 30.12 849 25.07 14.3 57.8 47 3.3 37.9
12:45 1020 30.12 849 25.07 14.1 57.4 47 3 37.3
12:50 1020 30.12 849 25.07 14 57.2 46 2.6 36.7
12:55 1020 30.12 849 25.07 14.7 58.5 45 3.1 37.6
13:00 1020 30.12 849 25.07 15.3 59.5 42 2.4 36.4
13:05 1020 30.12 849 25.07 15.7 60.3 41 2.7 36.8
13:10 1020 30.12 849 25.07 15.4 59.7 43 3.1 37.5
13:15 1020 30.12 849 25.07 15 58.9 43 2.6 36.7
13:20 1020 30.12 849 25.07 15.3 59.6 44 3.2 37.8
13:25 1020 30.12 849 25.07 16 60.8 40 2.4 36.4
13:30 1020 30.12 849 25.07 15.8 60.4 41 2.6 36.6
13:35 1020 30.12 849 25.07 15.8 60.4 42 2.9 37.2
13:40 1020 30.12 849 25.07 16.1 60.9 37 1.5 34.7
13:45 1020 30.12 849 25.07 16 60.8 40 2.5 36.5
13:50 1020 30.12 849 25.07 16 60.8 36 1.1 34.1
13:55 1020 30.12 849 25.07 16.3 61.3 36 1.2 34.2
14:00 1020 30.12 849 25.07 17.2 62.9 33 0.7 33.2
14:05 1020 30.12 849 25.07 16.8 62.2 34 1.1 34
14:10 1020 30.12 849 25.07 16.7 62.1 33 0.4 32.8
14:15 1020 30.12 849 25.07 16.6 61.8 34 0.7 33.2
14:20 1020 30.12 849 25.07 17 62.6 33 0.8 33.4
14:25 1020 30.12 849 25.07 16.6 61.9 36 1.4 34.6
14:30 1020 30.12 849 25.07 17 62.6 35 1.6 34.8
14:35 1020 30.12 849 25.07 16.3 61.4 35 1 33.7
14:40 1020 30.12 849 25.07 16.6 61.8 35 1.3 34.3
14:45 1020 30.12 849 25.07 16.8 62.3 35 1.5 34.6
14:50 1020 30.12 849 25.07 16.8 62.2 34 0.8 33.4
14:55 1020 30.12 849 25.07 17.1 62.8 33 1 33.8
15:00 1020 30.12 849 25.07 17.2 63 32 0.7 33.2
15:05 1020 30.12 849 25.07 17.3 63.1 32 0.6 33.1
15:10 1020 30.12 849 25.07 17.4 63.3 32 0.7 33.3
15:15 1020 30.12 849 25.07 17.3 63.1 33 0.8 33.5
15:20 1019 30.09 849 25.07 17.4 63.2 33 1 33.7
15:25 1019 30.09 849 25.07 17.2 62.9 33 0.9 33.7
15:30 1019 30.09 849 25.07 17.7 63.9 33 1.3 34.3
15:35 1019 30.09 848 25.04 17.6 63.8 33 1.1 34
15:40 1019 30.09 848 25.04 17.2 63 34 1.5 34.7
15:45 1019 30.09 848 25.04 17.6 63.7 34 1.5 34.7
15:50 1019 30.09 848 25.04 18 64.4 33 1.8 35.2
15:55 1019 30.09 848 25.04 17.8 64.1 33 1.3 34.3
16:00 1019 30.09 848 25.04 17.5 63.5 33 1 33.9
16:05 1019 30.09 849 25.07 17.1 62.9 33 0.8 33.4
16:10 1019 30.09 848 25.04 17.4 63.4 32 0.6 33.2
16:15 1019 30.09 848 25.04 17.3 63.2 33 0.9 33.6
16:20 1019 30.09 848 25.04 17.4 63.3 33 1.2 34.1
16:25 1019 30.09 848 25.04 17.8 64 32 0.9 33.6
16:30 1019 30.09 848 25.04 18.3 65 30 0.5 32.9
16:35 1019 30.09 848 25.04 17.5 63.5 32 0.9 33.6
16:40 1019 30.09 848 25.04 17.5 63.5 31 0.4 32.7
16:45 1019 30.09 848 25.04 17.5 63.5 31 0.4 32.6
16:50 1019 30.09 848 25.04 17.7 63.8 30 0.1 32.2
16:55 1019 30.09 848 25.04 18.3 64.9 29 0.1 32.2
17:00 1019 30.09 848 25.04 18.3 65 29 0.3 32.5
17:05 1019 30.09 848 25.04 18.4 65.2 28 -0.1 31.8
17:10 1019 30.09 848 25.04 17.6 63.6 30 0.1 32.2
17:15 1019 30.09 848 25.04 17.8 64 29 -0.3 31.4
17:20 1019 30.09 848 25.04 18.2 64.7 29 0 32.1
17:25 1019 30.09 848 25.04 18.2 64.7 28 -0.5 31.2
17:30 1019 30.09 848 25.04 18.5 65.4 29 0.5 32.8
17:35 1019 30.09 848 25.04 17.7 63.9 29 -0.3 31.5
17:40 1019 30.09 848 25.04 17.1 62.7 30 -0.7 30.7
17:45 1019 30.09 848 25.04 17.1 62.9 30 -0.4 31.3
17:50 1019 30.09 848 25.04 17.6 63.7 30 -0.3 31.5
17:55 1019 30.09 848 25.04 17.5 63.5 29 -0.6 30.9
18:00 1019 30.09 848 25.04 18.1 64.5 28 -0.5 31.1
18:05 1019 30.09 848 25.04 17.6 63.7 29 -0.4 31.2
18:10 1019 30.09 848 25.04 18.4 65 28 -0.5 31.1
18:15 1019 30.09 848 25.04 18.8 65.8 27 -0.2 31.6
18:20 1019 30.09 848 25.04 18.9 66.1 27 -0.5 31.1
18:25 1019 30.09 848 25.04 18.5 65.2 28 -0.3 31.5
18:30 1019 30.09 848 25.04 18 64.3 29 -0.4 31.3
18:35 1019 30.09 848 25.04 17.7 63.8 29 -0.4 31.3
18:40 1019 30.09 848 25.04 18.3 64.9 28 -0.3 31.5
18:45 1019 30.09 848 25.04 18.9 65.9 28 -0.1 31.9
18:50 1019 30.09 848 25.04 18.4 65 29 0.3 32.6
18:55 1019 30.09 848 25.04 18.7 65.6 29 0.3 32.5
19:00 1019 30.09 848 25.04 18.7 65.6 28 0 32.1
19:05 1019 30.09 848 25.04 18.1 64.5 30 0.3 32.6
19:10 1019 30.09 848 25.04 18.1 64.6 30 0.4 32.7
19:15 1019 30.09 848 25.04 18.1 64.6 30 0.2 32.4
19:20 1019 30.09 848 25.04 18.4 65.2 29 -0 32
19:25 1019 30.09 848 25.04 18.7 65.6 29 0.4 32.8
19:30 1019 30.09 848 25.04 18.2 64.8 30 0.4 32.7
19:35 1019 30.09 848 25.04 17.9 64.2 30 0.1 32.1
19:40 1019 30.09 848 25.04 18 64.4 30 0.1 32.2
19:45 1019 30.09 848 25.04 18.2 64.8 29 0.2 32.3
19:50 1019 30.09 848 25.04 18.5 65.2 29 0.3 32.6
19:55 1019 30.09 848 25.04 18 64.4 30 0.5 32.9
20:00 1019 30.09 848 25.04 17.6 63.8 30 0.2 32.3
20:05 1019 30.09 848 25.04 17.1 62.7 32 0.2 32.4
20:10 1019 30.09 848 25.04 17 62.6 32 0.4 32.8
20:15 1019 30.09 848 25.04 17 62.7 32 0.3 32.6
20:20 1019 30.09 848 25.04 17 62.6 33 0.7 33.2
20:25 1019 30.09 848 25.04 17 62.5 34 1 33.7
20:30 1019 30.09 848 25.04 16.9 62.5 33 0.9 33.5
20:35 1019 30.09 848 25.04 16.7 62.1 33 0.7 33.2
20:40 1019 30.09 848 25.04 16.5 61.7 34 0.8 33.5
20:45 1019 30.09 848 25.04 16.2 61.2 35 0.9 33.7
20:50 1018 30.06 848 25.04 15.9 60.7 35 0.8 33.4
20:55 1018 30.06 848 25.04 15.7 60.3 37 1 33.8
21:00 1018 30.06 848 25.04 15.6 60 37 1 33.8
21:05 1018 30.06 848 25.04 15.5 59.9 38 1.4 34.5
21:10 1018 30.06 848 25.04 15.3 59.6 39 1.6 34.9
21:15 1018 30.06 848 25.04 15.1 59.2 43 2.8 37.1
21:20 1018 30.06 848 25.04 14.7 58.5 48 3.8 38.9
21:25 1018 30.06 848 25.04 14.4 57.9 51 4.5 40.1
21:30 1019 30.09 848 25.04 14 57.3 52 4.5 40.2
21:35 1019 30.09 848 25.04 13.7 56.6 56 5.1 41.1
21:40 1019 30.09 848 25.04 13 55.5 57 4.8 40.7
21:45 1019 30.09 848 25.04 12.7 54.8 58 4.8 40.6
21:50 1019 30.09 848 25.04 12.2 53.9 60 4.7 40.5
21:55 1019 30.09 848 25.04 12 53.6 59 4.2 39.6
22:00 1019 30.09 848 25.04 11.5 52.7 59 3.9 39
22:05 1019 30.09 848 25.04 11.3 52.4 60 3.9 39
22:10 1019 30.09 848 25.04 11.2 52.2 61 4.1 39.4
22:15 1019 30.09 848 25.04 11 51.7 64 4.5 40.1
22:20 1019 30.09 848 25.04 10.7 51.3 66 4.6 40.3
22:25 1019 30.09 848 25.04 10.5 50.9 65 4.3 39.8
22:30 1019 30.09 848 25.04 10.6 51 63 3.9 38.9
22:35 1019 30.09 848 25.04 10.8 51.4 62 3.9 39.1
22:40 1019 30.09 848 25.04 10.9 51.6 63 4.2 39.6
22:45 1019 30.09 848 25.04 10.8 51.4 63 4.1 39.4
22:50 1019 30.09 848 25.04 10.6 51.2 64 4.2 39.6
22:55 1019 30.09 848 25.04 10.6 51 64 4.1 39.3
23:00 1019 30.09 848 25.04 10.4 50.7 65 4.2 39.6
23:05 1019 30.09 848 25.04 10.1 50.2 67 4.2 39.6
23:10 1019 30.09 849 25.07 10.1 50.2 65 3.8 38.8
23:15 1019 30.09 849 25.07 10.3 50.5 64 3.8 38.8
23:20 1020 30.12 849 25.07 10.3 50.6 66 4.2 39.5
23:25 1020 30.12 849 25.07 10.4 50.6 65 4.2 39.6
23:30 1020 30.12 849 25.07 10.3 50.5 66 4.2 39.6
23:35 1020 30.12 849 25.07 10.1 50.1 67 4.2 39.6
23:40 1020 30.12 849 25.07 10 50.1 67 4.2 39.6
23:45 1020 30.12 849 25.07 10 50 67 4.2 39.6
23:50 1020 30.12 849 25.07 10 50 67 4.1 39.5
23:55 1020 30.12 849 25.07 9.6 49.3 69 4.3 39.7
24:00 1020 30.12 849 25.07 9.8 49.6 69 4.5 40